sensor_id;sensor_type;location;lat;lon;timestamp;P1;durP1;ratioP1;P2;durP2;ratioP2
57231;SDS011;43488;46.934;8.276;2023-04-08T00:01:47;746.38;;;294.42;;
57231;SDS011;43488;46.934;8.276;2023-04-08T00:04:15;741.58;;;287.08;;
57231;SDS011;43488;46.934;8.276;2023-04-08T00:06:42;736.30;;;273.50;;
57231;SDS011;43488;46.934;8.276;2023-04-08T00:09:10;750.25;;;290.10;;
57231;SDS011;43488;46.934;8.276;2023-04-08T00:11:38;758.00;;;299.38;;
57231;SDS011;43488;46.934;8.276;2023-04-08T00:14:05;743.35;;;285.92;;
57231;SDS011;43488;46.934;8.276;2023-04-08T00:16:33;758.55;;;299.52;;
57231;SDS011;43488;46.934;8.276;2023-04-08T00:19:01;744.92;;;284.77;;
57231;SDS011;43488;46.934;8.276;2023-04-08T00:21:29;739.58;;;283.42;;
57231;SDS011;43488;46.934;8.276;2023-04-08T00:23:57;729.55;;;281.98;;
57231;SDS011;43488;46.934;8.276;2023-04-08T00:26:24;732.10;;;276.92;;
57231;SDS011;43488;46.934;8.276;2023-04-08T00:28:52;722.83;;;273.02;;
57231;SDS011;43488;46.934;8.276;2023-04-08T00:31:19;738.70;;;289.20;;
57231;SDS011;43488;46.934;8.276;2023-04-08T00:33:47;743.47;;;299.40;;
57231;SDS011;43488;46.934;8.276;2023-04-08T00:36:15;740.25;;;290.10;;
57231;SDS011;43488;46.934;8.276;2023-04-08T00:38:43;733.80;;;282.42;;
57231;SDS011;43488;46.934;8.276;2023-04-08T00:41:11;738.72;;;296.17;;
57231;SDS011;43488;46.934;8.276;2023-04-08T00:43:39;744.35;;;301.35;;
57231;SDS011;43488;46.934;8.276;2023-04-08T00:46:07;732.60;;;285.17;;
57231;SDS011;43488;46.934;8.276;2023-04-08T00:48:35;725.72;;;273.17;;
57231;SDS011;43488;46.934;8.276;2023-04-08T00:51:03;725.40;;;272.48;;
57231;SDS011;43488;46.934;8.276;2023-04-08T00:53:30;729.67;;;296.25;;
57231;SDS011;43488;46.934;8.276;2023-04-08T00:55:57;717.42;;;281.23;;
57231;SDS011;43488;46.934;8.276;2023-04-08T00:58:27;714.28;;;282.35;;
57231;SDS011;43488;46.934;8.276;2023-04-08T01:01:02;722.25;;;288.20;;
57231;SDS011;43488;46.934;8.276;2023-04-08T01:09:20;720.20;;;287.70;;
57231;SDS011;43488;46.934;8.276;2023-04-08T01:11:53;725.17;;;291.83;;
57231;SDS011;43488;46.934;8.276;2023-04-08T01:14:24;725.42;;;292.77;;
57231;SDS011;43488;46.934;8.276;2023-04-08T01:16:54;722.15;;;284.05;;
57231;SDS011;43488;46.934;8.276;2023-04-08T01:19:26;722.67;;;281.83;;
57231;SDS011;43488;46.934;8.276;2023-04-08T01:22:10;722.05;;;274.83;;
57231;SDS011;43488;46.934;8.276;2023-04-08T01:24:50;722.75;;;278.63;;
57231;SDS011;43488;46.934;8.276;2023-04-08T01:27:33;719.63;;;264.15;;
57231;SDS011;43488;46.934;8.276;2023-04-08T01:30:03;737.42;;;277.65;;
57231;SDS011;43488;46.934;8.276;2023-04-08T01:32:33;750.05;;;295.83;;
57231;SDS011;43488;46.934;8.276;2023-04-08T01:35:02;734.95;;;280.27;;
57231;SDS011;43488;46.934;8.276;2023-04-08T01:37:30;748.38;;;288.00;;
57231;SDS011;43488;46.934;8.276;2023-04-08T01:39:59;735.92;;;277.65;;
57231;SDS011;43488;46.934;8.276;2023-04-08T01:42:28;761.15;;;301.58;;
57231;SDS011;43488;46.934;8.276;2023-04-08T01:44:57;727.25;;;286.38;;
57231;SDS011;43488;46.934;8.276;2023-04-08T01:47:27;724.50;;;290.73;;
57231;SDS011;43488;46.934;8.276;2023-04-08T01:49:56;711.10;;;269.75;;
57231;SDS011;43488;46.934;8.276;2023-04-08T01:52:25;726.42;;;283.55;;
57231;SDS011;43488;46.934;8.276;2023-04-08T01:54:56;717.00;;;284.10;;
57231;SDS011;43488;46.934;8.276;2023-04-08T01:57:26;708.83;;;269.52;;
57231;SDS011;43488;46.934;8.276;2023-04-08T01:59:58;713.65;;;281.08;;
57231;SDS011;43488;46.934;8.276;2023-04-08T02:02:32;714.13;;;281.42;;
57231;SDS011;43488;46.934;8.276;2023-04-08T02:05:03;708.45;;;291.20;;
57231;SDS011;43488;46.934;8.276;2023-04-08T02:07:31;677.00;;;271.13;;
57231;SDS011;43488;46.934;8.276;2023-04-08T02:09:59;691.17;;;280.70;;
57231;SDS011;43488;46.934;8.276;2023-04-08T02:12:26;694.47;;;283.52;;
57231;SDS011;43488;46.934;8.276;2023-04-08T02:14:56;679.75;;;291.73;;
57231;SDS011;43488;46.934;8.276;2023-04-08T02:17:28;667.33;;;278.08;;
57231;SDS011;43488;46.934;8.276;2023-04-08T02:20:22;638.08;;;225.13;;
57231;SDS011;43488;46.934;8.276;2023-04-08T02:25:39;666.83;;;282.80;;
57231;SDS011;43488;46.934;8.276;2023-04-08T02:28:10;658.60;;;268.42;;
57231;SDS011;43488;46.934;8.276;2023-04-08T02:30:41;651.08;;;267.67;;
57231;SDS011;43488;46.934;8.276;2023-04-08T02:33:11;647.42;;;265.02;;
57231;SDS011;43488;46.934;8.276;2023-04-08T02:35:40;638.33;;;263.88;;
57231;SDS011;43488;46.934;8.276;2023-04-08T02:38:09;631.75;;;259.75;;
57231;SDS011;43488;46.934;8.276;2023-04-08T02:40:37;621.63;;;258.08;;
57231;SDS011;43488;46.934;8.276;2023-04-08T02:43:07;631.63;;;268.40;;
57231;SDS011;43488;46.934;8.276;2023-04-08T02:45:39;619.20;;;257.38;;
57231;SDS011;43488;46.934;8.276;2023-04-08T02:48:08;610.78;;;253.27;;
57231;SDS011;43488;46.934;8.276;2023-04-08T02:50:36;610.17;;;255.57;;
57231;SDS011;43488;46.934;8.276;2023-04-08T02:53:04;616.42;;;261.65;;
57231;SDS011;43488;46.934;8.276;2023-04-08T02:55:31;601.75;;;251.10;;
57231;SDS011;43488;46.934;8.276;2023-04-08T02:58:00;595.47;;;247.65;;
57231;SDS011;43488;46.934;8.276;2023-04-08T03:00:27;598.72;;;253.27;;
57231;SDS011;43488;46.934;8.276;2023-04-08T03:02:54;606.53;;;258.27;;
57231;SDS011;43488;46.934;8.276;2023-04-08T03:05:22;598.80;;;253.60;;
57231;SDS011;43488;46.934;8.276;2023-04-08T03:07:50;579.40;;;247.35;;
57231;SDS011;43488;46.934;8.276;2023-04-08T03:10:17;581.00;;;248.25;;
57231;SDS011;43488;46.934;8.276;2023-04-08T03:12:44;588.45;;;242.02;;
57231;SDS011;43488;46.934;8.276;2023-04-08T03:15:11;594.33;;;249.73;;
57231;SDS011;43488;46.934;8.276;2023-04-08T03:17:39;631.22;;;265.88;;
57231;SDS011;43488;46.934;8.276;2023-04-08T03:20:07;662.78;;;274.92;;
57231;SDS011;43488;46.934;8.276;2023-04-08T03:22:35;672.60;;;282.20;;
57231;SDS011;43488;46.934;8.276;2023-04-08T03:25:03;668.42;;;280.17;;
57231;SDS011;43488;46.934;8.276;2023-04-08T03:27:31;655.08;;;253.05;;
57231;SDS011;43488;46.934;8.276;2023-04-08T03:29:59;675.15;;;287.67;;
57231;SDS011;43488;46.934;8.276;2023-04-08T03:32:27;654.97;;;256.95;;
57231;SDS011;43488;46.934;8.276;2023-04-08T03:34:54;646.30;;;271.98;;
57231;SDS011;43488;46.934;8.276;2023-04-08T03:37:21;653.63;;;272.10;;
57231;SDS011;43488;46.934;8.276;2023-04-08T03:39:49;674.53;;;285.60;;
57231;SDS011;43488;46.934;8.276;2023-04-08T03:42:16;666.35;;;269.23;;
57231;SDS011;43488;46.934;8.276;2023-04-08T03:44:44;664.50;;;278.58;;
57231;SDS011;43488;46.934;8.276;2023-04-08T03:47:11;664.50;;;272.20;;
57231;SDS011;43488;46.934;8.276;2023-04-08T03:49:38;668.60;;;280.00;;
57231;SDS011;43488;46.934;8.276;2023-04-08T03:52:06;671.22;;;280.70;;
57231;SDS011;43488;46.934;8.276;2023-04-08T03:54:33;665.63;;;280.52;;
57231;SDS011;43488;46.934;8.276;2023-04-08T03:57:01;663.13;;;276.20;;
57231;SDS011;43488;46.934;8.276;2023-04-08T03:59:28;662.13;;;275.95;;
57231;SDS011;43488;46.934;8.276;2023-04-08T04:01:56;662.90;;;275.95;;
57231;SDS011;43488;46.934;8.276;2023-04-08T04:04:23;656.97;;;274.58;;
57231;SDS011;43488;46.934;8.276;2023-04-08T04:06:50;665.33;;;280.73;;
57231;SDS011;43488;46.934;8.276;2023-04-08T04:09:18;660.28;;;275.88;;
57231;SDS011;43488;46.934;8.276;2023-04-08T04:11:45;665.55;;;276.92;;
57231;SDS011;43488;46.934;8.276;2023-04-08T04:14:12;667.60;;;279.08;;
57231;SDS011;43488;46.934;8.276;2023-04-08T04:16:39;656.40;;;268.17;;
57231;SDS011;43488;46.934;8.276;2023-04-08T04:19:08;665.03;;;278.73;;
57231;SDS011;43488;46.934;8.276;2023-04-08T04:21:35;660.15;;;274.92;;
57231;SDS011;43488;46.934;8.276;2023-04-08T04:24:02;662.67;;;277.52;;
57231;SDS011;43488;46.934;8.276;2023-04-08T04:26:30;660.92;;;274.13;;
57231;SDS011;43488;46.934;8.276;2023-04-08T04:29:00;658.15;;;270.70;;
57231;SDS011;43488;46.934;8.276;2023-04-08T04:31:27;662.42;;;278.33;;
57231;SDS011;43488;46.934;8.276;2023-04-08T04:33:55;657.80;;;278.42;;
57231;SDS011;43488;46.934;8.276;2023-04-08T04:36:22;651.50;;;267.80;;
57231;SDS011;43488;46.934;8.276;2023-04-08T04:38:49;650.17;;;269.55;;
57231;SDS011;43488;46.934;8.276;2023-04-08T04:41:16;647.40;;;264.25;;
57231;SDS011;43488;46.934;8.276;2023-04-08T04:43:45;641.45;;;260.33;;
57231;SDS011;43488;46.934;8.276;2023-04-08T04:46:12;646.53;;;261.75;;
57231;SDS011;43488;46.934;8.276;2023-04-08T04:48:39;652.72;;;272.67;;
57231;SDS011;43488;46.934;8.276;2023-04-08T04:51:06;650.53;;;268.40;;
57231;SDS011;43488;46.934;8.276;2023-04-08T04:53:34;644.78;;;271.38;;
57231;SDS011;43488;46.934;8.276;2023-04-08T04:56:01;638.28;;;261.75;;
57231;SDS011;43488;46.934;8.276;2023-04-08T04:58:29;633.45;;;258.92;;
57231;SDS011;43488;46.934;8.276;2023-04-08T05:00:56;631.17;;;252.55;;
57231;SDS011;43488;46.934;8.276;2023-04-08T05:03:23;639.15;;;262.95;;
57231;SDS011;43488;46.934;8.276;2023-04-08T05:05:52;650.13;;;270.92;;
57231;SDS011;43488;46.934;8.276;2023-04-08T05:08:20;647.67;;;271.38;;
57231;SDS011;43488;46.934;8.276;2023-04-08T05:10:47;643.58;;;265.58;;
57231;SDS011;43488;46.934;8.276;2023-04-08T05:13:17;635.50;;;259.05;;
57231;SDS011;43488;46.934;8.276;2023-04-08T05:15:45;643.40;;;263.85;;
57231;SDS011;43488;46.934;8.276;2023-04-08T05:18:12;639.63;;;264.50;;
57231;SDS011;43488;46.934;8.276;2023-04-08T05:20:39;635.03;;;257.50;;
57231;SDS011;43488;46.934;8.276;2023-04-08T05:23:07;638.63;;;264.30;;
57231;SDS011;43488;46.934;8.276;2023-04-08T05:25:34;642.28;;;265.40;;
57231;SDS011;43488;46.934;8.276;2023-04-08T05:28:02;636.45;;;256.73;;
57231;SDS011;43488;46.934;8.276;2023-04-08T05:30:30;643.10;;;265.00;;
57231;SDS011;43488;46.934;8.276;2023-04-08T05:32:57;639.30;;;268.13;;
57231;SDS011;43488;46.934;8.276;2023-04-08T05:35:25;625.92;;;256.08;;
57231;SDS011;43488;46.934;8.276;2023-04-08T05:37:52;642.95;;;271.75;;
57231;SDS011;43488;46.934;8.276;2023-04-08T05:40:20;618.03;;;255.25;;
57231;SDS011;43488;46.934;8.276;2023-04-08T05:42:48;650.13;;;270.17;;
57231;SDS011;43488;46.934;8.276;2023-04-08T05:45:15;659.80;;;276.52;;
57231;SDS011;43488;46.934;8.276;2023-04-08T05:47:43;607.50;;;248.30;;
57231;SDS011;43488;46.934;8.276;2023-04-08T05:50:10;654.15;;;273.88;;
57231;SDS011;43488;46.934;8.276;2023-04-08T05:52:42;659.70;;;273.77;;
57231;SDS011;43488;46.934;8.276;2023-04-08T05:55:11;639.20;;;230.45;;
57231;SDS011;43488;46.934;8.276;2023-04-08T05:57:40;657.40;;;252.07;;
57231;SDS011;43488;46.934;8.276;2023-04-08T06:00:08;644.38;;;242.52;;
57231;SDS011;43488;46.934;8.276;2023-04-08T06:02:36;647.10;;;240.93;;
57231;SDS011;43488;46.934;8.276;2023-04-08T06:05:04;668.63;;;274.95;;
57231;SDS011;43488;46.934;8.276;2023-04-08T06:07:32;655.25;;;256.48;;
57231;SDS011;43488;46.934;8.276;2023-04-08T06:10:00;669.28;;;278.52;;
57231;SDS011;43488;46.934;8.276;2023-04-08T06:12:28;668.22;;;274.42;;
57231;SDS011;43488;46.934;8.276;2023-04-08T06:14:56;680.60;;;282.27;;
57231;SDS011;43488;46.934;8.276;2023-04-08T06:17:23;670.05;;;269.65;;
57231;SDS011;43488;46.934;8.276;2023-04-08T06:19:51;679.47;;;281.10;;
57231;SDS011;43488;46.934;8.276;2023-04-08T06:22:18;670.55;;;269.67;;
57231;SDS011;43488;46.934;8.276;2023-04-08T06:24:46;682.63;;;284.38;;
57231;SDS011;43488;46.934;8.276;2023-04-08T06:27:14;665.38;;;264.88;;
57231;SDS011;43488;46.934;8.276;2023-04-08T06:29:42;675.55;;;275.98;;
57231;SDS011;43488;46.934;8.276;2023-04-08T06:32:09;670.05;;;271.63;;
57231;SDS011;43488;46.934;8.276;2023-04-08T06:34:36;680.00;;;276.02;;
57231;SDS011;43488;46.934;8.276;2023-04-08T06:37:04;674.72;;;274.48;;
57231;SDS011;43488;46.934;8.276;2023-04-08T06:39:32;674.58;;;272.98;;
57231;SDS011;43488;46.934;8.276;2023-04-08T06:42:00;677.20;;;276.15;;
57231;SDS011;43488;46.934;8.276;2023-04-08T06:44:28;677.92;;;272.48;;
57231;SDS011;43488;46.934;8.276;2023-04-08T06:46:56;685.58;;;284.23;;
57231;SDS011;43488;46.934;8.276;2023-04-08T06:49:23;684.67;;;280.25;;
57231;SDS011;43488;46.934;8.276;2023-04-08T06:51:52;672.03;;;272.15;;
57231;SDS011;43488;46.934;8.276;2023-04-08T06:54:23;687.88;;;282.17;;
57231;SDS011;43488;46.934;8.276;2023-04-08T06:56:50;682.20;;;281.55;;
57231;SDS011;43488;46.934;8.276;2023-04-08T06:59:19;681.03;;;272.48;;
57231;SDS011;43488;46.934;8.276;2023-04-08T07:01:47;687.55;;;281.92;;
57231;SDS011;43488;46.934;8.276;2023-04-08T07:04:15;688.90;;;277.40;;
57231;SDS011;43488;46.934;8.276;2023-04-08T07:06:42;694.55;;;290.70;;
57231;SDS011;43488;46.934;8.276;2023-04-08T07:09:10;683.67;;;273.48;;
57231;SDS011;43488;46.934;8.276;2023-04-08T07:11:39;695.75;;;290.25;;
57231;SDS011;43488;46.934;8.276;2023-04-08T07:14:06;684.85;;;275.35;;
57231;SDS011;43488;46.934;8.276;2023-04-08T07:16:34;688.30;;;281.92;;
57231;SDS011;43488;46.934;8.276;2023-04-08T07:19:01;686.88;;;280.33;;
57231;SDS011;43488;46.934;8.276;2023-04-08T07:21:28;686.22;;;285.65;;
57231;SDS011;43488;46.934;8.276;2023-04-08T07:23:57;677.70;;;274.95;;
57231;SDS011;43488;46.934;8.276;2023-04-08T07:26:25;682.95;;;280.88;;
57231;SDS011;43488;46.934;8.276;2023-04-08T07:28:53;682.55;;;283.20;;
57231;SDS011;43488;46.934;8.276;2023-04-08T07:31:21;675.45;;;290.40;;
57231;SDS011;43488;46.934;8.276;2023-04-08T07:33:49;624.00;;;216.38;;
57231;SDS011;43488;46.934;8.276;2023-04-08T07:36:17;678.67;;;280.95;;
57231;SDS011;43488;46.934;8.276;2023-04-08T07:38:45;652.28;;;250.65;;
57231;SDS011;43488;46.934;8.276;2023-04-08T07:41:13;671.22;;;263.95;;
57231;SDS011;43488;46.934;8.276;2023-04-08T07:43:41;681.00;;;280.88;;
57231;SDS011;43488;46.934;8.276;2023-04-08T07:46:09;675.33;;;273.52;;
57231;SDS011;43488;46.934;8.276;2023-04-08T07:48:36;688.13;;;285.25;;
57231;SDS011;43488;46.934;8.276;2023-04-08T07:51:08;683.80;;;284.10;;
57231;SDS011;43488;46.934;8.276;2023-04-08T07:53:35;696.22;;;284.60;;
57231;SDS011;43488;46.934;8.276;2023-04-08T07:56:09;705.07;;;292.80;;
57231;SDS011;43488;46.934;8.276;2023-04-08T07:58:41;704.95;;;280.63;;
57231;SDS011;43488;46.934;8.276;2023-04-08T08:01:21;710.38;;;290.90;;
57231;SDS011;43488;46.934;8.276;2023-04-08T08:03:49;699.35;;;272.95;;
57231;SDS011;43488;46.934;8.276;2023-04-08T08:06:17;711.17;;;287.27;;
57231;SDS011;43488;46.934;8.276;2023-04-08T08:08:44;692.20;;;263.42;;
57231;SDS011;43488;46.934;8.276;2023-04-08T08:11:12;721.40;;;297.40;;
57231;SDS011;43488;46.934;8.276;2023-04-08T08:13:40;726.63;;;289.45;;
57231;SDS011;43488;46.934;8.276;2023-04-08T08:16:07;728.05;;;294.67;;
57231;SDS011;43488;46.934;8.276;2023-04-08T08:18:38;729.10;;;289.25;;
57231;SDS011;43488;46.934;8.276;2023-04-08T08:21:06;718.80;;;279.23;;
57231;SDS011;43488;46.934;8.276;2023-04-08T08:23:34;704.72;;;268.75;;
57231;SDS011;43488;46.934;8.276;2023-04-08T08:26:03;725.25;;;305.65;;
57231;SDS011;43488;46.934;8.276;2023-04-08T08:28:33;715.80;;;284.42;;
57231;SDS011;43488;46.934;8.276;2023-04-08T08:31:00;715.28;;;291.73;;
57231;SDS011;43488;46.934;8.276;2023-04-08T08:33:29;713.97;;;290.98;;
57231;SDS011;43488;46.934;8.276;2023-04-08T08:35:56;713.88;;;296.05;;
57231;SDS011;43488;46.934;8.276;2023-04-08T08:38:24;704.70;;;290.17;;
57231;SDS011;43488;46.934;8.276;2023-04-08T08:40:56;700.13;;;285.98;;
57231;SDS011;43488;46.934;8.276;2023-04-08T08:43:24;698.83;;;278.08;;
57231;SDS011;43488;46.934;8.276;2023-04-08T08:45:53;704.95;;;287.13;;
57231;SDS011;43488;46.934;8.276;2023-04-08T08:48:21;708.80;;;290.85;;
57231;SDS011;43488;46.934;8.276;2023-04-08T08:50:49;683.15;;;284.13;;
57231;SDS011;43488;46.934;8.276;2023-04-08T08:53:17;670.50;;;292.27;;
57231;SDS011;43488;46.934;8.276;2023-04-08T08:55:49;659.83;;;282.38;;
57231;SDS011;43488;46.934;8.276;2023-04-08T08:58:16;669.63;;;287.27;;
57231;SDS011;43488;46.934;8.276;2023-04-08T09:00:44;693.92;;;304.02;;
57231;SDS011;43488;46.934;8.276;2023-04-08T09:03:18;657.17;;;250.25;;
57231;SDS011;43488;46.934;8.276;2023-04-08T09:05:54;650.47;;;273.52;;
57231;SDS011;43488;46.934;8.276;2023-04-08T09:08:30;652.90;;;288.10;;
57231;SDS011;43488;46.934;8.276;2023-04-08T09:11:12;669.67;;;283.88;;
57231;SDS011;43488;46.934;8.276;2023-04-08T09:13:49;675.55;;;298.83;;
57231;SDS011;43488;46.934;8.276;2023-04-08T09:16:17;675.38;;;291.80;;
57231;SDS011;43488;46.934;8.276;2023-04-08T09:18:46;647.85;;;275.75;;
57231;SDS011;43488;46.934;8.276;2023-04-08T09:21:16;660.10;;;279.60;;
57231;SDS011;43488;46.934;8.276;2023-04-08T09:23:49;652.58;;;271.15;;
57231;SDS011;43488;46.934;8.276;2023-04-08T09:26:19;646.95;;;278.00;;
57231;SDS011;43488;46.934;8.276;2023-04-08T09:29:03;644.25;;;274.83;;
57231;SDS011;43488;46.934;8.276;2023-04-08T09:31:36;658.58;;;288.27;;
57231;SDS011;43488;46.934;8.276;2023-04-08T09:34:14;636.40;;;262.27;;
57231;SDS011;43488;46.934;8.276;2023-04-08T09:36:45;642.90;;;293.73;;
57231;SDS011;43488;46.934;8.276;2023-04-08T09:39:15;642.37;;;276.07;;
57231;SDS011;43488;46.934;8.276;2023-04-08T09:41:42;651.08;;;281.63;;
57231;SDS011;43488;46.934;8.276;2023-04-08T09:44:10;631.95;;;272.85;;
57231;SDS011;43488;46.934;8.276;2023-04-08T09:49:57;643.85;;;270.60;;
57231;SDS011;43488;46.934;8.276;2023-04-08T09:55:35;681.35;;;280.85;;
57231;SDS011;43488;46.934;8.276;2023-04-08T09:58:08;707.10;;;306.80;;
57231;SDS011;43488;46.934;8.276;2023-04-08T10:00:46;701.20;;;293.52;;
57231;SDS011;43488;46.934;8.276;2023-04-08T10:03:34;690.13;;;288.17;;
57231;SDS011;43488;46.934;8.276;2023-04-08T10:06:06;659.97;;;276.88;;
57231;SDS011;43488;46.934;8.276;2023-04-08T10:08:36;678.47;;;295.52;;
57231;SDS011;43488;46.934;8.276;2023-04-08T10:11:04;669.15;;;282.48;;
57231;SDS011;43488;46.934;8.276;2023-04-08T10:13:31;652.38;;;279.90;;
57231;SDS011;43488;46.934;8.276;2023-04-08T10:16:19;664.90;;;280.67;;
57231;SDS011;43488;46.934;8.276;2023-04-08T10:18:50;670.58;;;297.90;;
57231;SDS011;43488;46.934;8.276;2023-04-08T10:21:39;637.90;;;265.35;;
57231;SDS011;43488;46.934;8.276;2023-04-08T10:24:15;570.03;;;254.07;;
57231;SDS011;43488;46.934;8.276;2023-04-08T10:26:44;583.65;;;252.90;;
57231;SDS011;43488;46.934;8.276;2023-04-08T10:31:48;611.22;;;259.70;;
57231;SDS011;43488;46.934;8.276;2023-04-08T10:34:17;668.05;;;285.95;;
57231;SDS011;43488;46.934;8.276;2023-04-08T10:36:47;716.75;;;299.25;;
57231;SDS011;43488;46.934;8.276;2023-04-08T10:39:15;698.20;;;305.13;;
57231;SDS011;43488;46.934;8.276;2023-04-08T10:44:17;709.83;;;318.40;;
57231;SDS011;43488;46.934;8.276;2023-04-08T10:46:53;710.47;;;296.38;;
57231;SDS011;43488;46.934;8.276;2023-04-08T10:49:21;715.50;;;294.77;;
57231;SDS011;43488;46.934;8.276;2023-04-08T10:51:48;729.00;;;304.80;;
57231;SDS011;43488;46.934;8.276;2023-04-08T10:54:16;726.28;;;299.17;;
57231;SDS011;43488;46.934;8.276;2023-04-08T10:56:50;701.28;;;310.30;;
57231;SDS011;43488;46.934;8.276;2023-04-08T10:59:28;636.10;;;279.48;;
57231;SDS011;43488;46.934;8.276;2023-04-08T11:01:59;703.17;;;304.05;;
57231;SDS011;43488;46.934;8.276;2023-04-08T11:04:28;724.13;;;300.88;;
57231;SDS011;43488;46.934;8.276;2023-04-08T11:06:55;761.47;;;300.48;;
57231;SDS011;43488;46.934;8.276;2023-04-08T11:09:24;761.83;;;300.63;;
57231;SDS011;43488;46.934;8.276;2023-04-08T11:11:54;769.22;;;304.95;;
57231;SDS011;43488;46.934;8.276;2023-04-08T11:14:22;767.30;;;309.92;;
57231;SDS011;43488;46.934;8.276;2023-04-08T11:16:50;760.33;;;293.25;;
57231;SDS011;43488;46.934;8.276;2023-04-08T11:19:18;756.70;;;286.58;;
57231;SDS011;43488;46.934;8.276;2023-04-08T11:21:46;772.80;;;306.77;;
57231;SDS011;43488;46.934;8.276;2023-04-08T11:24:14;767.30;;;301.30;;
57231;SDS011;43488;46.934;8.276;2023-04-08T11:26:41;753.72;;;286.33;;
57231;SDS011;43488;46.934;8.276;2023-04-08T11:29:12;754.38;;;288.42;;
57231;SDS011;43488;46.934;8.276;2023-04-08T11:31:43;765.92;;;303.27;;
57231;SDS011;43488;46.934;8.276;2023-04-08T11:34:13;763.80;;;304.15;;
57231;SDS011;43488;46.934;8.276;2023-04-08T11:36:50;746.60;;;279.67;;
57231;SDS011;43488;46.934;8.276;2023-04-08T11:39:21;774.45;;;311.77;;
57231;SDS011;43488;46.934;8.276;2023-04-08T11:41:49;735.92;;;296.98;;
57231;SDS011;43488;46.934;8.276;2023-04-08T11:44:17;664.85;;;282.70;;
57231;SDS011;43488;46.934;8.276;2023-04-08T11:46:51;708.53;;;298.67;;
57231;SDS011;43488;46.934;8.276;2023-04-08T11:49:23;663.58;;;280.40;;
57231;SDS011;43488;46.934;8.276;2023-04-08T11:51:57;713.03;;;296.05;;
57231;SDS011;43488;46.934;8.276;2023-04-08T11:54:28;692.83;;;292.25;;
57231;SDS011;43488;46.934;8.276;2023-04-08T11:56:57;691.67;;;288.83;;
57231;SDS011;43488;46.934;8.276;2023-04-08T11:59:25;746.15;;;304.73;;
57231;SDS011;43488;46.934;8.276;2023-04-08T12:01:53;724.95;;;303.55;;
57231;SDS011;43488;46.934;8.276;2023-04-08T12:04:21;736.13;;;316.63;;
57231;SDS011;43488;46.934;8.276;2023-04-08T12:06:49;733.78;;;303.00;;
57231;SDS011;43488;46.934;8.276;2023-04-08T12:09:17;708.42;;;315.02;;
57231;SDS011;43488;46.934;8.276;2023-04-08T12:11:44;745.72;;;313.98;;
57231;SDS011;43488;46.934;8.276;2023-04-08T12:14:13;697.50;;;313.08;;
57231;SDS011;43488;46.934;8.276;2023-04-08T12:16:40;694.50;;;300.48;;
57231;SDS011;43488;46.934;8.276;2023-04-08T12:19:09;721.75;;;319.20;;
57231;SDS011;43488;46.934;8.276;2023-04-08T12:21:38;701.17;;;285.48;;
57231;SDS011;43488;46.934;8.276;2023-04-08T12:24:06;710.78;;;297.75;;
57231;SDS011;43488;46.934;8.276;2023-04-08T12:26:34;709.67;;;299.17;;
57231;SDS011;43488;46.934;8.276;2023-04-08T12:29:03;589.60;;;261.15;;
57231;SDS011;43488;46.934;8.276;2023-04-08T12:31:31;571.33;;;251.57;;
57231;SDS011;43488;46.934;8.276;2023-04-08T12:33:59;597.42;;;263.33;;
57231;SDS011;43488;46.934;8.276;2023-04-08T12:36:27;658.15;;;278.52;;
57231;SDS011;43488;46.934;8.276;2023-04-08T12:38:54;695.33;;;275.60;;
57231;SDS011;43488;46.934;8.276;2023-04-08T12:41:21;705.95;;;310.50;;
57231;SDS011;43488;46.934;8.276;2023-04-08T12:43:50;713.15;;;316.45;;
57231;SDS011;43488;46.934;8.276;2023-04-08T12:46:17;729.83;;;295.55;;
57231;SDS011;43488;46.934;8.276;2023-04-08T12:48:45;733.65;;;297.75;;
57231;SDS011;43488;46.934;8.276;2023-04-08T12:51:17;686.50;;;299.00;;
57231;SDS011;43488;46.934;8.276;2023-04-08T12:53:47;720.33;;;314.27;;
57231;SDS011;43488;46.934;8.276;2023-04-08T12:56:15;707.83;;;306.80;;
57231;SDS011;43488;46.934;8.276;2023-04-08T12:58:42;704.42;;;305.02;;
57231;SDS011;43488;46.934;8.276;2023-04-08T13:01:10;706.03;;;303.35;;
57231;SDS011;43488;46.934;8.276;2023-04-08T13:03:38;714.08;;;315.98;;
57231;SDS011;43488;46.934;8.276;2023-04-08T13:06:06;712.28;;;303.38;;
57231;SDS011;43488;46.934;8.276;2023-04-08T13:08:34;707.70;;;294.63;;
57231;SDS011;43488;46.934;8.276;2023-04-08T13:11:02;743.72;;;314.02;;
57231;SDS011;43488;46.934;8.276;2023-04-08T13:13:29;745.58;;;298.92;;
57231;SDS011;43488;46.934;8.276;2023-04-08T13:15:56;753.97;;;309.85;;
57231;SDS011;43488;46.934;8.276;2023-04-08T13:18:24;741.60;;;295.17;;
57231;SDS011;43488;46.934;8.276;2023-04-08T13:20:53;754.20;;;314.88;;
57231;SDS011;43488;46.934;8.276;2023-04-08T13:23:20;716.65;;;325.38;;
57231;SDS011;43488;46.934;8.276;2023-04-08T13:25:48;746.17;;;317.38;;
57231;SDS011;43488;46.934;8.276;2023-04-08T13:28:15;766.33;;;304.95;;
57231;SDS011;43488;46.934;8.276;2023-04-08T13:30:43;701.83;;;309.60;;
57231;SDS011;43488;46.934;8.276;2023-04-08T13:33:10;708.60;;;313.88;;
57231;SDS011;43488;46.934;8.276;2023-04-08T13:35:38;728.67;;;304.38;;
57231;SDS011;43488;46.934;8.276;2023-04-08T13:38:05;732.88;;;309.13;;
57231;SDS011;43488;46.934;8.276;2023-04-08T13:40:33;748.55;;;325.42;;
57231;SDS011;43488;46.934;8.276;2023-04-08T13:43:01;747.33;;;326.98;;
57231;SDS011;43488;46.934;8.276;2023-04-08T13:45:28;723.50;;;300.42;;
57231;SDS011;43488;46.934;8.276;2023-04-08T13:47:56;703.42;;;295.38;;
57231;SDS011;43488;46.934;8.276;2023-04-08T13:50:23;732.88;;;325.15;;
57231;SDS011;43488;46.934;8.276;2023-04-08T13:52:51;705.25;;;305.90;;
57231;SDS011;43488;46.934;8.276;2023-04-08T13:55:18;715.47;;;301.23;;
57231;SDS011;43488;46.934;8.276;2023-04-08T13:57:46;695.08;;;306.70;;
57231;SDS011;43488;46.934;8.276;2023-04-08T14:00:14;670.85;;;283.85;;
57231;SDS011;43488;46.934;8.276;2023-04-08T14:02:42;716.90;;;321.38;;
57231;SDS011;43488;46.934;8.276;2023-04-08T14:05:09;582.35;;;255.68;;
57231;SDS011;43488;46.934;8.276;2023-04-08T14:07:37;662.35;;;286.80;;
57231;SDS011;43488;46.934;8.276;2023-04-08T14:10:05;688.10;;;311.65;;
57231;SDS011;43488;46.934;8.276;2023-04-08T14:12:33;643.25;;;274.33;;
57231;SDS011;43488;46.934;8.276;2023-04-08T14:15:01;575.05;;;244.27;;
57231;SDS011;43488;46.934;8.276;2023-04-08T14:17:28;596.90;;;259.08;;
57231;SDS011;43488;46.934;8.276;2023-04-08T14:19:57;659.65;;;289.30;;
57231;SDS011;43488;46.934;8.276;2023-04-08T14:22:26;572.70;;;248.65;;
57231;SDS011;43488;46.934;8.276;2023-04-08T14:24:54;659.45;;;288.33;;
57231;SDS011;43488;46.934;8.276;2023-04-08T14:27:22;727.58;;;326.30;;